Time;durP1;ratioP1;P1;durP2;ratioP2;P2;SDS_P1;SDS_P2;PMS_P1;PMS_P2;Temp;Humidity;BMP_temperature;BMP_pressure;BME280_temperature;BME280_humidity;BME280_pressure;Samples;Min_cycle;Max_cycle;Signal;HPM_P1;HPM_P2
2021/12/15 07:35:54;;;;;;;3.60;3.33;;;;;;;;;;7370613;19;132888;-19
2021/12/15 07:38:27;;;;;;;3.75;3.45;;;;;;;;;;7365392;19;153580;-17
2021/12/15 07:41:03;;;;;;;3.83;3.53;;;;;;;;;;7364812;19;162168;-17
2021/12/15 07:43:34;;;;;;;;;;;;;;;;;;7364819;19;162360;-17
2021/12/15 07:46:08;;;;;;;3.60;3.30;;;;;;;;;;7363982;19;154194;-17
2021/12/15 07:48:40;;;;;;;3.97;3.58;;;;;;;;;;7365169;19;153668;-17
2021/12/15 07:51:15;;;;;;;3.28;3.03;;;;;;;;;;7363140;19;161828;-17
2021/12/15 07:53:47;;;;;;;3.90;3.60;;;;;;;;;;7364376;19;162495;-18
2021/12/15 07:56:19;;;;;;;3.47;3.15;;;;;;;;;;7364523;19;153918;-19
2021/12/15 07:58:50;;;;;;;3.78;3.47;;;;;;;;;;7363741;19;153523;-18
2021/12/15 08:01:24;;;;;;;3.95;3.55;;;;;;;;;;7362961;19;161868;-17
2021/12/15 08:03:55;;;;;;;4.05;3.30;;;;;;;;;;7363400;19;162792;-17
2021/12/15 08:06:30;;;;;;;3.42;3.13;;;;;;;;;;7363293;19;154009;-17
2021/12/15 08:09:02;;;;;;;3.30;3.10;;;;;;;;;;7364353;19;153566;-19
2021/12/15 08:11:33;;;;;;;3.17;2.95;;;;;;;;;;7363704;19;161975;-18
2021/12/15 08:14:08;;;;;;;3.28;3.08;;;;;;;;;;7363594;19;162399;-18
2021/12/15 08:16:41;;;;;;;3.13;2.92;;;;;;;;;;7363893;19;154060;-18
2021/12/15 08:19:15;;;;;;;3.58;3.28;;;;;;;;;;7364108;19;154073;-15
2021/12/15 08:21:50;;;;;;;3.33;3.13;;;;;;;;;;7363568;19;162049;-16
2021/12/15 08:24:21;;;;;;;2.53;2.33;;;;;;;;;;7362465;19;162677;-16
2021/12/15 08:26:53;;;;;;;3.72;3.42;;;;;;;;;;7363702;19;153942;-17
2021/12/15 08:29:24;;;;;;;3.10;2.80;;;;;;;;;;7363548;19;153551;-17
2021/12/15 08:31:55;;;;;;;2.92;2.72;;;;;;;;;;7363426;19;161838;-17
2021/12/15 08:34:27;;;;;;;2.88;2.67;;;;;;;;;;7361962;19;162316;-17
2021/12/15 08:37:01;;;;;;;2.50;2.30;;;;;;;;;;7333662;19;154136;-16
2021/12/15 08:39:32;;;;;;;3.10;2.88;;;;;;;;;;7334367;19;153745;-16
2021/12/15 08:42:05;;;;;;;2.72;2.53;;;;;;;;;;7334100;19;162120;-16
2021/12/15 08:44:40;;;;;;;2.72;2.53;;;;;;;;;;7332112;19;162652;-16
2021/12/15 08:47:12;;;;;;;2.80;2.60;;;;;;;;;;7334508;19;153954;-17
2021/12/15 08:49:47;;;;;;;2.30;2.10;;;;;;;;;;7334186;19;153762;-17
2021/12/15 08:52:27;;;;;;;2.60;2.40;;;;;;;;;;7334082;19;161924;-18
2021/12/15 08:55:00;;;;;;;2.38;2.17;;;;;;;;;;7333898;19;162319;-18
2021/12/15 08:57:31;;;;;;;2.55;2.35;;;;;;;;;;7334288;19;154350;-18
2021/12/15 09:00:08;;;;;;;2.40;2.30;;;;;;;;;;7334159;19;153698;-17
2021/12/15 09:02:40;;;;;;;2.38;2.17;;;;;;;;;;7333664;19;162052;-17
2021/12/15 09:05:12;;;;;;;2.28;2.17;;;;;;;;;;7332338;19;162352;-19
2021/12/15 09:07:46;;;;;;;2.10;2.00;;;;;;;;;;7334276;19;154184;-17
2021/12/15 09:10:18;;;;;;;2.80;2.60;;;;;;;;;;7333824;19;153634;-19
2021/12/15 09:12:50;;;;;;;2.33;2.22;;;;;;;;;;7333855;19;161925;-21
2021/12/15 09:15:24;;;;;;;2.50;2.30;;;;;;;;;;7333198;19;162476;-17
2021/12/15 09:18:04;;;;;;;2.15;2.05;;;;;;;;;;7333629;19;153919;-16
2021/12/15 09:20:37;;;;;;;2.00;1.90;;;;;;;;;;7333625;19;153686;-16
2021/12/15 09:23:17;;;;;;;2.25;2.15;;;;;;;;;;7333203;19;161814;-17
2021/12/15 09:25:55;;;;;;;2.00;1.90;;;;;;;;;;7331239;19;162179;-20
2021/12/15 09:28:29;;;;;;;2.15;2.03;;;;;;;;;;7333621;19;153938;-17
2021/12/15 09:31:02;;;;;;;2.28;2.17;;;;;;;;;;7333342;19;153806;-17
2021/12/15 09:33:35;;;;;;;2.00;1.90;;;;;;;;;;7332647;19;162034;-17
2021/12/15 09:36:08;;;;;;;;;;;;;;;;;;7332324;19;162640;-17
2021/12/15 09:38:45;;;;;;;1.85;1.75;;;;;;;;;;7333150;19;154039;-17
2021/12/15 09:41:21;;;;;;;2.22;2.03;;;;;;;;;;7333283;19;153553;-18
2021/12/15 09:43:56;;;;;;;2.13;1.98;;;;;;;;;;7332386;19;161826;-16
2021/12/15 09:46:42;;;;;;;1.70;1.60;;;;;;;;;;7328953;19;162343;-16
2021/12/15 10:01:52;;;;;;;1.77;1.67;;;;;;;;;;7332393;19;162395;-18
2021/12/15 10:03:31;;;;;;;1.60;1.50;;;;;;;;;;7332175;19;154158;-17
2021/12/15 10:06:20;;;;;;;1.73;1.63;;;;;;;;;;7330204;19;162045;-18
2021/12/15 10:11:52;;;;;;;1.55;1.45;;;;;;;;;;7330955;19;154398;-17
2021/12/15 10:20:09;;;;;;;1.80;1.70;;;;;;;;;;7328801;19;163072;-18
2021/12/15 10:22:44;;;;;;;1.58;1.48;;;;;;;;;;7330461;19;153979;-18
2021/12/15 10:25:19;;;;;;;1.60;1.50;;;;;;;;;;7331096;19;153526;-18
2021/12/15 10:27:56;;;;;;;1.33;1.33;;;;;;;;;;7330233;19;161920;-17
2021/12/15 10:30:31;;;;;;;1.25;1.25;;;;;;;;;;7330859;19;162374;-17
2021/12/15 10:33:05;;;;;;;1.45;1.45;;;;;;;;;;7331677;19;153870;-18
2021/12/15 10:35:40;;;;;;;1.30;1.30;;;;;;;;;;7328556;19;153483;-17
2021/12/15 10:38:21;;;;;;;1.50;1.40;;;;;;;;;;7331106;19;161990;-16
2021/12/15 10:40:59;;;;;;;1.60;1.50;;;;;;;;;;7330499;19;162555;-16
2021/12/15 10:43:37;;;;;;;1.15;1.15;;;;;;;;;;7331188;19;154053;-17
2021/12/15 10:46:16;;;;;;;1.10;1.10;;;;;;;;;;7329150;19;153535;-17
2021/12/15 10:48:52;;;;;;;1.30;1.30;;;;;;;;;;7330671;19;162013;-16
2021/12/15 10:51:32;;;;;;;1.30;1.25;;;;;;;;;;7330656;19;162367;-16
2021/12/15 10:54:07;;;;;;;1.25;1.25;;;;;;;;;;7329682;19;153858;-16
2021/12/15 10:56:40;;;;;;;1.20;1.20;;;;;;;;;;7331003;19;153547;-16
2021/12/15 10:59:16;;;;;;;1.25;1.23;;;;;;;;;;7328557;19;161959;-15
2021/12/15 11:01:52;;;;;;;1.38;1.27;;;;;;;;;;7330250;19;162398;-15
2021/12/15 11:04:40;;;;;;;1.45;1.42;;;;;;;;;;7330627;19;154063;-16
2021/12/15 11:07:26;;;;;;;1.20;1.20;;;;;;;;;;7327853;19;153513;-17
2021/12/15 11:10:02;;;;;;;1.17;1.17;;;;;;;;;;7329104;19;162057;-16
2021/12/15 11:12:37;;;;;;;1.13;1.13;;;;;;;;;;7329436;19;162507;-17
2021/12/15 11:15:16;;;;;;;1.30;1.30;;;;;;;;;;7330273;19;154158;-17
2021/12/15 11:17:49;;;;;;;1.48;1.40;;;;;;;;;;7330021;19;153494;-17
2021/12/15 11:20:26;;;;;;;1.63;1.52;;;;;;;;;;7329530;19;162170;-17
2021/12/15 11:23:00;;;;;;;1.40;1.38;;;;;;;;;;7328288;19;162435;-17
2021/12/15 11:25:36;;;;;;;1.40;1.30;;;;;;;;;;7329795;19;154094;-17
2021/12/15 11:28:12;;;;;;;1.30;1.30;;;;;;;;;;7330069;19;153489;-17
2021/12/15 11:30:50;;;;;;;1.10;1.10;;;;;;;;;;7329265;19;161793;-17
2021/12/15 11:33:24;;;;;;;1.30;1.20;;;;;;;;;;7328016;19;162631;-17
2021/12/15 11:36:00;;;;;;;1.23;1.23;;;;;;;;;;7329431;19;154014;-17
2021/12/15 11:38:36;;;;;;;1.48;1.38;;;;;;;;;;7328379;19;153536;-17
2021/12/15 11:41:13;;;;;;;1.20;1.20;;;;;;;;;;7328083;19;161879;-17
2021/12/15 11:43:49;;;;;;;1.10;1.10;;;;;;;;;;7327638;19;162382;-16
2021/12/15 11:46:34;;;;;;;1.40;1.40;;;;;;;;;;7327185;19;153975;-16
2021/12/15 11:49:08;;;;;;;1.13;1.13;;;;;;;;;;7329166;19;153641;-16
2021/12/15 11:51:43;;;;;;;1.27;1.20;;;;;;;;;;7328492;19;161862;-16
2021/12/15 11:54:18;;;;;;;1.20;1.20;;;;;;;;;;7328431;19;162405;-16
2021/12/15 11:56:51;;;;;;;1.10;1.10;;;;;;;;;;7328854;19;154006;-16
2021/12/15 11:59:25;;;;;;;1.17;1.17;;;;;;;;;;7328593;19;153504;-16
2021/12/15 12:02:07;;;;;;;1.38;1.38;;;;;;;;;;7327868;19;161811;-16
2021/12/15 12:04:42;;;;;;;1.33;1.33;;;;;;;;;;7328261;19;162561;-16
2021/12/15 12:07:27;;;;;;;1.30;1.30;;;;;;;;;;7327178;19;154205;-16
2021/12/15 12:10:02;;;;;;;1.10;1.10;;;;;;;;;;7328755;19;153690;-17
2021/12/15 12:12:49;;;;;;;1.20;1.10;;;;;;;;;;7334778;19;161825;-17
2021/12/15 12:15:23;;;;;;;1.20;1.20;;;;;;;;;;7334816;19;162397;-15
2021/12/15 12:18:00;;;;;;;1.10;1.10;;;;;;;;;;7333914;19;154058;-15
2021/12/15 12:20:35;;;;;;;1.17;1.08;;;;;;;;;;7335414;19;153730;-17
2021/12/15 12:23:08;;;;;;;1.40;1.30;;;;;;;;;;7335057;19;161913;-17
2021/12/15 12:25:45;;;;;;;1.02;1.02;;;;;;;;;;7334785;19;162355;-18
2021/12/15 12:28:19;;;;;;;1.27;1.27;;;;;;;;;;7333066;19;154194;-17
2021/12/15 12:30:53;;;;;;;1.10;1.10;;;;;;;;;;7334999;19;153520;-18
2021/12/15 12:33:28;;;;;;;1.35;1.25;;;;;;;;;;7334418;19;161889;-17
2021/12/15 12:36:07;;;;;;;1.08;1.08;;;;;;;;;;7334366;19;162578;-17
2021/12/15 12:38:42;;;;;;;1.00;1.00;;;;;;;;;;7334767;19;154184;-17
2021/12/15 12:41:16;;;;;;;1.17;1.17;;;;;;;;;;7334657;19;153955;-18
2021/12/15 12:43:50;;;;;;;1.00;1.00;;;;;;;;;;7334105;19;161791;-17
2021/12/15 12:46:29;;;;;;;1.17;1.08;;;;;;;;;;7334373;19;162312;-17
2021/12/15 12:49:33;;;;;;;1.10;1.10;;;;;;;;;;7334657;19;153952;-17
2021/12/15 13:00:41;;;;;;;1.25;1.20;;;;;;;;;;7334327;19;153998;-17
2021/12/15 13:03:17;;;;;;;1.00;1.00;;;;;;;;;;7333108;19;153854;-17
2021/12/15 13:05:53;;;;;;;1.02;1.02;;;;;;;;;;7333916;19;162065;-17
2021/12/15 13:08:36;;;;;;;0.98;0.98;;;;;;;;;;7331919;19;162729;-17
2021/12/15 13:11:15;;;;;;;1.13;1.13;;;;;;;;;;7334204;19;154222;-17
2021/12/15 13:13:57;;;;;;;1.00;1.00;;;;;;;;;;7332692;19;153571;-17
2021/12/15 13:16:33;;;;;;;1.10;1.10;;;;;;;;;;7333549;19;161921;-17
2021/12/15 13:19:13;;;;;;;1.10;1.10;;;;;;;;;;7333345;19;162868;-17
2021/12/15 13:21:54;;;;;;;1.00;1.00;;;;;;;;;;7331028;19;153999;-18
2021/12/15 13:30:38;;;;;;;1.67;1.38;;;;;;;;;;7336452;19;162490;-17
2021/12/15 13:33:16;;;;;;;1.13;1.13;;;;;;;;;;7335449;19;154484;-16
2021/12/15 13:35:53;;;;;;;1.40;1.30;;;;;;;;;;7336063;19;153498;-17
2021/12/15 13:38:36;;;;;;;1.08;1.08;;;;;;;;;;7336114;19;161803;-16
2021/12/15 13:41:18;;;;;;;0.90;0.90;;;;;;;;;;7335442;19;162606;-15
2021/12/15 13:43:54;;;;;;;1.27;1.03;;;;;;;;;;7336383;19;154042;-16
2021/12/15 13:46:37;;;;;;;1.30;1.20;;;;;;;;;;7335090;19;153305;-16
2021/12/15 13:49:31;;;;;;;1.00;1.00;;;;;;;;;;7331142;19;162030;-15
2021/12/15 13:52:14;;;;;;;0.98;0.95;;;;;;;;;;7335411;19;162485;-16
2021/12/15 13:55:16;;;;;;;1.27;1.20;;;;;;;;;;7335539;19;154294;-17
2021/12/15 13:58:16;;;;;;;1.20;1.10;;;;;;;;;;7335206;19;153561;-17
2021/12/15 14:00:53;;;;;;;1.10;1.05;;;;;;;;;;7335604;19;162011;-16
2021/12/15 14:03:33;;;;;;;1.10;1.10;;;;;;;;;;7336151;19;162371;-16
2021/12/15 14:06:13;;;;;;;1.10;1.10;;;;;;;;;;7330940;19;153953;-16
2021/12/15 14:08:53;;;;;;;1.20;1.20;;;;;;;;;;7330729;19;153503;-16
2021/12/15 14:11:29;;;;;;;1.15;1.10;;;;;;;;;;7331739;19;161962;-15
2021/12/15 14:14:03;;;;;;;1.70;1.10;;;;;;;;;;7331595;19;162329;-17
2021/12/15 14:16:53;;;;;;;1.10;1.10;;;;;;;;;;7332101;19;153879;-16
2021/12/15 14:19:30;;;;;;;1.20;1.20;;;;;;;;;;7330544;19;153521;-17
2021/12/15 14:22:04;;;;;;;1.42;1.35;;;;;;;;;;7331302;19;161808;-16
2021/12/15 14:24:37;;;;;;;1.05;1.05;;;;;;;;;;7331294;19;162483;-17
2021/12/15 14:27:11;;;;;;;1.02;1.02;;;;;;;;;;7330478;19;154010;-17
2021/12/15 14:29:46;;;;;;;1.00;1.00;;;;;;;;;;7329023;19;153715;-17
2021/12/15 14:32:17;;;;;;;1.05;1.05;;;;;;;;;;7330941;19;162061;-17
2021/12/15 14:34:49;;;;;;;1.20;1.20;;;;;;;;;;7327303;19;162404;-16
2021/12/15 14:37:21;;;;;;;1.10;1.10;;;;;;;;;;7331177;19;153951;-16
2021/12/15 14:39:55;;;;;;;1.05;1.05;;;;;;;;;;7329794;19;153507;-16
2021/12/15 14:42:31;;;;;;;1.05;1.02;;;;;;;;;;7330817;19;161828;-16
2021/12/15 14:45:08;;;;;;;1.20;1.10;;;;;;;;;;7330787;19;162633;-16
2021/12/15 14:47:42;;;;;;;1.30;1.13;;;;;;;;;;7329781;19;154134;-16
2021/12/15 14:50:16;;;;;;;1.42;1.00;;;;;;;;;;7329458;19;153645;-17
2021/12/15 14:52:51;;;;;;;1.95;1.10;;;;;;;;;;7330078;19;161812;-16
2021/12/15 14:55:29;;;;;;;1.42;1.33;;;;;;;;;;7330363;19;162485;-17
2021/12/15 14:58:20;;;;;;;2.08;1.35;;;;;;;;;;7330636;19;153964;-16
2021/12/15 15:00:53;;;;;;;1.30;1.20;;;;;;;;;;7329998;19;153517;-16
2021/12/15 15:03:25;;;;;;;2.03;1.60;;;;;;;;;;7329949;19;162227;-17
2021/12/15 15:05:56;;;;;;;2.85;1.20;;;;;;;;;;7330132;19;162338;-16
2021/12/15 15:08:31;;;;;;;1.45;1.35;;;;;;;;;;7329789;19;154197;-17
2021/12/15 15:11:07;;;;;;;2.92;1.15;;;;;;;;;;7330262;19;153562;-16
2021/12/15 15:13:42;;;;;;;1.13;1.13;;;;;;;;;;7329889;19;162071;-17
2021/12/15 15:16:13;;;;;;;1.13;1.10;;;;;;;;;;7329975;19;162371;-16
2021/12/15 15:19:03;;;;;;;1.13;1.13;;;;;;;;;;7330395;19;154019;-17
2021/12/15 15:21:41;;;;;;;1.63;1.20;;;;;;;;;;7329879;19;153542;-15
2021/12/15 15:24:25;;;;;;;;;;;;;;;;;;7328928;19;161871;-16
2021/12/15 15:27:00;;;;;;;1.52;1.15;;;;;;;;;;7329721;19;162675;-18
2021/12/15 15:29:43;;;;;;;1.05;1.05;;;;;;;;;;7328330;19;154500;-16
2021/12/15 15:32:28;;;;;;;1.00;1.00;;;;;;;;;;7329833;19;153522;-17
2021/12/15 15:35:14;;;;;;;1.00;1.00;;;;;;;;;;7326745;19;161994;-16
2021/12/15 15:37:50;;;;;;;1.15;1.13;;;;;;;;;;7329331;19;162432;-16
2021/12/15 15:40:38;;;;;;;;;;;;;;;;;;7330150;19;154133;-16
2021/12/15 15:43:22;;;;;;;0.90;0.90;;;;;;;;;;7329656;19;153591;-16
2021/12/15 15:45:57;;;;;;;1.23;1.23;;;;;;;;;;7330384;19;162078;-16
2021/12/15 15:48:31;;;;;;;1.15;1.15;;;;;;;;;;7335772;19;162305;-17
2021/12/15 15:51:07;;;;;;;1.30;1.20;;;;;;;;;;7336341;19;153942;-16
2021/12/15 15:53:40;;;;;;;1.13;1.13;;;;;;;;;;7336141;19;153592;-16
2021/12/15 15:56:14;;;;;;;;;;;;;;;;;;7336123;19;162149;-17
2021/12/15 15:58:47;;;;;;;1.10;1.10;;;;;;;;;;7335729;19;162543;-16
2021/12/15 16:01:34;;;;;;;1.95;1.42;;;;;;;;;;7335509;19;154143;-20
2021/12/15 16:04:08;;;;;;;1.23;1.23;;;;;;;;;;7335540;19;153792;-17
2021/12/15 16:06:41;;;;;;;0.98;0.98;;;;;;;;;;7335166;19;162099;-17
2021/12/15 16:09:16;;;;;;;1.10;1.10;;;;;;;;;;7334931;19;162509;-17
2021/12/15 16:11:52;;;;;;;1.45;1.35;;;;;;;;;;7335625;19;153984;-17
2021/12/15 16:14:26;;;;;;;1.40;1.30;;;;;;;;;;7335382;19;153522;-16
2021/12/15 16:17:06;;;;;;;1.20;1.20;;;;;;;;;;7335009;19;161870;-16
2021/12/15 16:19:53;;;;;;;1.33;1.10;;;;;;;;;;7334834;19;162368;-18
2021/12/15 16:25:22;;;;;;;1.35;1.33;;;;;;;;;;7335093;19;153581;-16
2021/12/15 16:28:10;;;;;;;1.10;1.10;;;;;;;;;;7334824;19;162154;-16
2021/12/15 16:30:43;;;;;;;1.58;1.10;;;;;;;;;;7332922;19;162370;-16
2021/12/15 16:33:19;;;;;;;1.27;1.17;;;;;;;;;;7334977;19;153977;-17
2021/12/15 16:35:54;;;;;;;1.05;1.05;;;;;;;;;;7334839;19;153492;-17
2021/12/15 16:38:30;;;;;;;1.25;1.20;;;;;;;;;;7334457;19;161817;-16
2021/12/15 16:41:07;;;;;;;1.10;1.10;;;;;;;;;;7334231;19;162345;-17
2021/12/15 16:43:48;;;;;;;1.33;1.30;;;;;;;;;;7334770;19;153978;-16
2021/12/15 16:46:39;;;;;;;1.08;1.08;;;;;;;;;;7334390;19;153685;-16
2021/12/15 16:49:26;;;;;;;1.10;1.10;;;;;;;;;;7332673;19;161952;-16
2021/12/15 16:52:11;;;;;;;1.10;1.10;;;;;;;;;;7334095;19;162484;-16
2021/12/15 16:54:50;;;;;;;1.10;1.10;;;;;;;;;;7334147;19;154212;-17
2021/12/15 16:57:27;;;;;;;1.15;1.10;;;;;;;;;;7333816;19;153539;-17
2021/12/15 17:00:11;;;;;;;1.10;1.10;;;;;;;;;;7334190;19;161819;-17
2021/12/15 17:02:46;;;;;;;1.35;1.10;;;;;;;;;;7334059;19;162389;-17
2021/12/15 17:05:26;;;;;;;1.15;1.15;;;;;;;;;;7334232;19;153988;-17
2021/12/15 17:08:08;;;;;;;1.40;1.30;;;;;;;;;;7333899;19;153570;-16
2021/12/15 17:10:44;;;;;;;1.20;1.20;;;;;;;;;;7331938;19;162082;-15
2021/12/15 17:13:18;;;;;;;1.33;1.23;;;;;;;;;;7332361;19;162657;-17
2021/12/15 17:15:59;;;;;;;1.40;1.40;;;;;;;;;;7332975;19;153958;-16
2021/12/15 17:18:38;;;;;;;0.85;0.85;;;;;;;;;;7333775;19;154185;-17
2021/12/15 17:21:24;;;;;;;1.45;1.35;;;;;;;;;;7333290;19;161912;-16
2021/12/15 17:23:58;;;;;;;1.40;1.38;;;;;;;;;;7333445;19;162440;-17
2021/12/15 17:26:33;;;;;;;1.50;1.13;;;;;;;;;;7333707;19;153914;-17
2021/12/15 17:29:14;;;;;;;1.33;1.23;;;;;;;;;;7332293;19;153830;-17
2021/12/15 17:31:48;;;;;;;1.17;1.17;;;;;;;;;;7330711;19;161945;-16
2021/12/15 17:34:24;;;;;;;1.10;1.10;;;;;;;;;;7331734;19;162389;-17
2021/12/15 17:37:00;;;;;;;1.05;1.05;;;;;;;;;;7333397;19;154077;-16
2021/12/15 17:39:36;;;;;;;1.45;1.38;;;;;;;;;;7333190;19;153586;-16
2021/12/15 17:42:13;;;;;;;1.27;1.27;;;;;;;;;;7332870;19;161760;-17
2021/12/15 17:44:47;;;;;;;1.23;1.23;;;;;;;;;;7332777;19;162359;-16
2021/12/15 17:47:23;;;;;;;1.85;1.35;;;;;;;;;;7333097;19;154566;-16
2021/12/15 17:50:05;;;;;;;1.48;1.38;;;;;;;;;;7332670;19;153517;-17
2021/12/15 17:52:42;;;;;;;1.40;1.30;;;;;;;;;;7332679;19;162383;-18
2021/12/15 17:55:19;;;;;;;1.00;1.00;;;;;;;;;;7332414;19;162506;-17
2021/12/15 17:57:59;;;;;;;1.20;1.20;;;;;;;;;;7331656;19;154005;-17
2021/12/15 18:00:36;;;;;;;1.40;1.30;;;;;;;;;;7332535;19;153533;-17
2021/12/15 18:03:11;;;;;;;1.23;1.20;;;;;;;;;;7332341;19;161963;-17
2021/12/15 18:05:44;;;;;;;1.30;1.30;;;;;;;;;;7332175;19;162417;-16
2021/12/15 18:08:18;;;;;;;1.33;1.33;;;;;;;;;;7330243;19;153962;-16
2021/12/15 18:10:52;;;;;;;1.20;1.20;;;;;;;;;;7331445;19;153512;-17
2021/12/15 18:13:25;;;;;;;1.10;1.10;;;;;;;;;;7330768;19;161859;-17
2021/12/15 18:15:58;;;;;;;1.15;1.15;;;;;;;;;;7331885;19;162370;-17
2021/12/15 18:18:31;;;;;;;1.30;1.30;;;;;;;;;;7330933;19;154152;-19
2021/12/15 18:21:07;;;;;;;1.10;1.10;;;;;;;;;;7331945;19;153494;-17
2021/12/15 18:23:41;;;;;;;1.10;1.10;;;;;;;;;;7330349;19;161844;-17
2021/12/15 18:26:16;;;;;;;1.48;1.48;;;;;;;;;;7331521;19;162534;-18
2021/12/15 18:28:48;;;;;;;1.35;1.35;;;;;;;;;;7331842;19;154169;-17
2021/12/15 18:31:23;;;;;;;1.52;1.42;;;;;;;;;;7330555;19;153514;-16
2021/12/15 18:33:54;;;;;;;1.27;1.27;;;;;;;;;;7329300;19;161750;-16
2021/12/15 18:36:25;;;;;;;1.30;1.30;;;;;;;;;;7331399;19;162526;-16
2021/12/15 18:39:00;;;;;;;1.63;1.52;;;;;;;;;;7331655;19;154270;-17
2021/12/15 18:41:31;;;;;;;1.42;1.42;;;;;;;;;;7331443;19;153511;-17
2021/12/15 18:44:06;;;;;;;1.55;1.45;;;;;;;;;;7329813;19;162130;-20
2021/12/15 18:46:38;;;;;;;1.50;1.40;;;;;;;;;;7330367;19;162421;-17
2021/12/15 18:49:14;;;;;;;1.35;1.35;;;;;;;;;;7331365;19;154081;-16
2021/12/15 18:51:46;;;;;;;1.70;1.60;;;;;;;;;;7329840;19;153541;-17
2021/12/15 18:54:21;;;;;;;1.10;1.10;;;;;;;;;;7330833;19;161780;-17
2021/12/15 18:56:57;;;;;;;1.40;1.30;;;;;;;;;;7329587;19;162934;-16
2021/12/15 18:59:31;;;;;;;1.70;1.60;;;;;;;;;;7330965;19;153973;-17
2021/12/15 19:02:08;;;;;;;1.40;1.40;;;;;;;;;;7330782;19;153485;-17
2021/12/15 19:04:41;;;;;;;1.10;1.08;;;;;;;;;;7330340;19;161596;-16
2021/12/15 19:07:13;;;;;;;1.45;1.45;;;;;;;;;;7330279;19;162352;-16
2021/12/15 19:09:48;;;;;;;1.30;1.30;;;;;;;;;;7330639;19;153969;-16
2021/12/15 19:12:21;;;;;;;1.73;1.63;;;;;;;;;;7328741;19;153510;-17
2021/12/15 19:14:54;;;;;;;1.75;1.65;;;;;;;;;;7330236;19;162120;-18
2021/12/15 19:17:26;;;;;;;1.38;1.35;;;;;;;;;;7329885;19;162385;-17
2021/12/15 19:20:01;;;;;;;2.25;1.65;;;;;;;;;;7329846;19;154163;-19
2021/12/15 19:22:33;;;;;;;1.60;1.50;;;;;;;;;;7329033;19;153587;-16
2021/12/15 19:25:08;;;;;;;1.67;1.40;;;;;;;;;;7329658;19;161839;-18
2021/12/15 19:27:40;;;;;;;1.60;1.50;;;;;;;;;;7328399;19;163171;-17
2021/12/15 19:30:16;;;;;;;2.97;1.70;;;;;;;;;;7328590;19;154043;-16
2021/12/15 19:32:47;;;;;;;1.70;1.60;;;;;;;;;;7327680;19;153736;-18
2021/12/15 19:35:19;;;;;;;1.63;1.52;;;;;;;;;;7326978;19;161815;-16
2021/12/15 19:37:51;;;;;;;1.90;1.80;;;;;;;;;;7329331;19;162331;-17
2021/12/15 19:40:25;;;;;;;3.17;1.98;;;;;;;;;;7329492;19;154094;-17
2021/12/15 19:42:57;;;;;;;2.75;1.90;;;;;;;;;;7329428;19;153611;-18
2021/12/15 19:45:31;;;;;;;2.65;1.92;;;;;;;;;;7329178;19;161971;-17
2021/12/15 19:48:03;;;;;;;1.75;1.65;;;;;;;;;;7328886;19;162453;-16
2021/12/15 19:50:38;;;;;;;3.38;1.95;;;;;;;;;;7329104;19;154049;-18
2021/12/15 19:53:09;;;;;;;2.17;1.65;;;;;;;;;;7326743;19;154051;-17
2021/12/15 19:55:43;;;;;;;1.98;1.70;;;;;;;;;;7328449;19;161792;-18
2021/12/15 19:58:15;;;;;;;7.47;2.05;;;;;;;;;;7328632;19;162570;-18
2021/12/15 20:00:51;;;;;;;3.92;1.83;;;;;;;;;;7328952;19;153957;-18
2021/12/15 20:03:24;;;;;;;2.00;1.80;;;;;;;;;;7328528;19;153557;-18
2021/12/15 20:05:58;;;;;;;2.07;1.87;;;;;;;;;;7327186;19;162011;-16
2021/12/15 20:08:31;;;;;;;6.15;2.40;;;;;;;;;;7328334;19;162716;-17
2021/12/15 20:22:31;;;;;;;3.17;2.50;;;;;;;;;;7373291;19;132559;-15
2021/12/15 20:25:02;;;;;;;2.03;1.90;;;;;;;;;;7368561;19;153638;-13
2021/12/15 20:27:34;;;;;;;2.50;2.28;;;;;;;;;;7364748;19;161852;-15
2021/12/15 20:30:11;;;;;;;3.58;2.63;;;;;;;;;;7366788;19;162365;-15
2021/12/15 20:32:44;;;;;;;2.90;2.40;;;;;;;;;;7366112;19;154078;-16
2021/12/15 20:35:17;;;;;;;2.30;2.10;;;;;;;;;;7364850;19;153530;-15
2021/12/15 20:37:51;;;;;;;3.08;2.25;;;;;;;;;;7365395;19;161931;-16
2021/12/15 20:40:23;;;;;;;2.97;2.28;;;;;;;;;;7366647;19;162331;-16
2021/12/15 20:42:54;;;;;;;3.20;2.90;;;;;;;;;;7368573;19;154002;-16
2021/12/15 20:45:27;;;;;;;2.40;2.20;;;;;;;;;;7366634;19;153499;-16
2021/12/15 20:47:58;;;;;;;3.60;2.50;;;;;;;;;;7363478;19;161951;-14
2021/12/15 20:50:33;;;;;;;2.70;2.40;;;;;;;;;;7363506;19;162417;-15
2021/12/15 20:53:09;;;;;;;8.15;3.22;;;;;;;;;;7364487;19;154002;-15
2021/12/15 20:55:41;;;;;;;3.17;2.80;;;;;;;;;;7364249;19;153792;-15
2021/12/15 20:58:13;;;;;;;2.97;2.40;;;;;;;;;;7363928;19;161907;-15
2021/12/15 21:00:47;;;;;;;2.72;2.53;;;;;;;;;;7367937;19;162701;-16
2021/12/15 21:03:20;;;;;;;2.58;2.40;;;;;;;;;;7364453;19;153920;-15
2021/12/15 21:05:54;;;;;;;3.08;2.70;;;;;;;;;;7364224;19;153589;-14
2021/12/15 21:08:29;;;;;;;2.78;2.58;;;;;;;;;;7363701;19;162246;-15
2021/12/15 21:11:07;;;;;;;3.63;2.92;;;;;;;;;;7362621;19;162594;-15
2021/12/15 21:13:46;;;;;;;3.63;2.72;;;;;;;;;;7365365;19;153906;-14
2021/12/15 21:16:20;;;;;;;3.55;3.25;;;;;;;;;;7367731;19;153431;-14
2021/12/15 21:18:54;;;;;;;5.47;3.97;;;;;;;;;;7365941;19;161909;-16
2021/12/15 21:21:27;;;;;;;3.78;3.40;;;;;;;;;;7356571;19;162386;-15
2021/12/15 21:24:01;;;;;;;;;;;;;;;;;;7335280;19;153966;-16
2021/12/15 21:26:32;;;;;;;3.13;2.80;;;;;;;;;;7333694;19;153956;-16
2021/12/15 21:29:08;;;;;;;5.10;4.60;;;;;;;;;;7334111;19;161835;-15
2021/12/15 21:31:40;;;;;;;12.88;8.82;;;;;;;;;;7331426;19;162559;-15
2021/12/15 21:34:11;;;;;;;8.25;7.40;;;;;;;;;;7334359;19;154087;-15
2021/12/15 21:36:42;;;;;;;7.28;6.57;;;;;;;;;;7334374;19;153512;-15
2021/12/15 21:39:17;;;;;;;5.90;5.30;;;;;;;;;;7333951;19;161810;-15
2021/12/15 21:41:48;;;;;;;7.15;5.70;;;;;;;;;;7333644;19;163064;-16
2021/12/15 21:44:20;;;;;;;5.70;5.10;;;;;;;;;;7336959;19;153929;-16
2021/12/15 21:46:51;;;;;;;6.90;5.65;;;;;;;;;;7336857;19;153987;-15
2021/12/15 21:49:24;;;;;;;6.65;5.82;;;;;;;;;;7336315;19;161880;-16
2021/12/15 21:51:56;;;;;;;5.38;4.88;;;;;;;;;;7335668;19;162322;-16
2021/12/15 21:54:33;;;;;;;6.45;4.80;;;;;;;;;;7337667;19;154076;-16
2021/12/15 21:57:06;;;;;;;5.97;5.38;;;;;;;;;;7337364;19;153608;-15
2021/12/15 21:59:38;;;;;;;6.20;5.18;;;;;;;;;;7336597;19;161725;-15
2021/12/15 22:02:12;;;;;;;6.65;5.35;;;;;;;;;;7336184;19;162702;-15
2021/12/15 22:04:44;;;;;;;4.72;4.32;;;;;;;;;;7336866;19;153945;-15
2021/12/15 22:07:15;;;;;;;5.88;5.18;;;;;;;;;;7336377;19;153697;-16
2021/12/15 22:09:49;;;;;;;5.53;5.03;;;;;;;;;;7336730;19;161736;-17
2021/12/15 22:12:20;;;;;;;5.65;4.93;;;;;;;;;;7334675;19;162329;-17
2021/12/15 22:14:52;;;;;;;6.25;5.38;;;;;;;;;;7336613;19;153937;-15
2021/12/15 22:17:23;;;;;;;5.35;4.85;;;;;;;;;;7336630;19;153560;-15
2021/12/15 22:19:55;;;;;;;5.30;4.80;;;;;;;;;;7335662;19;162729;-16
2021/12/15 22:22:26;;;;;;;6.05;5.22;;;;;;;;;;7334288;19;162508;-17
2021/12/15 22:25:00;;;;;;;5.22;4.70;;;;;;;;;;7336373;19;153935;-17
2021/12/15 22:27:31;;;;;;;5.07;4.68;;;;;;;;;;7335685;19;153649;-16
2021/12/15 22:30:02;;;;;;;4.90;4.43;;;;;;;;;;7335547;19;161853;-15
2021/12/15 22:32:38;;;;;;;4.97;4.47;;;;;;;;;;7333909;19;162381;-14
2021/12/15 22:35:12;;;;;;;4.38;4.00;;;;;;;;;;7332896;19;153785;-16
2021/12/15 22:37:43;;;;;;;5.23;4.77;;;;;;;;;;7336056;19;153665;-14
2021/12/15 22:40:18;;;;;;;4.93;4.43;;;;;;;;;;7334838;19;161760;-15
2021/12/15 22:42:49;;;;;;;4.93;4.53;;;;;;;;;;7334809;19;162344;-15
2021/12/15 22:45:23;;;;;;;5.00;4.40;;;;;;;;;;7336014;19;153913;-15
2021/12/15 22:47:55;;;;;;;5.43;4.93;;;;;;;;;;7334391;19;153954;-15
2021/12/15 22:50:28;;;;;;;4.32;3.90;;;;;;;;;;7334916;19;162447;-15
2021/12/15 22:53:00;;;;;;;5.55;4.75;;;;;;;;;;7333181;19;162408;-14
2021/12/15 22:55:35;;;;;;;5.72;4.50;;;;;;;;;;7334818;19;154134;-14
2021/12/15 22:58:07;;;;;;;4.63;4.13;;;;;;;;;;7335837;19;153517;-15
2021/12/15 23:00:42;;;;;;;4.70;4.30;;;;;;;;;;7333766;19;161849;-14
2021/12/15 23:03:16;;;;;;;4.88;4.38;;;;;;;;;;7334862;19;162361;-17
2021/12/15 23:05:48;;;;;;;4.05;3.75;;;;;;;;;;7334878;19;156007;-15
2021/12/15 23:08:25;;;;;;;4.38;3.97;;;;;;;;;;7335273;19;153526;-15
2021/12/15 23:11:25;;;;;;;5.63;4.70;;;;;;;;;;7334258;19;165665;-15
2021/12/15 23:13:59;;;;;;;4.78;4.38;;;;;;;;;;7331846;19;162628;-17
2021/12/15 23:16:33;;;;;;;4.95;4.40;;;;;;;;;;7330237;19;154109;-18
2021/12/15 23:19:05;;;;;;;4.30;3.95;;;;;;;;;;7331079;19;153655;-15
2021/12/15 23:21:38;;;;;;;4.38;4.00;;;;;;;;;;7330262;19;162100;-16
2021/12/15 23:24:11;;;;;;;4.38;3.95;;;;;;;;;;7330942;19;162538;-16
2021/12/15 23:26:45;;;;;;;3.72;3.42;;;;;;;;;;7331420;19;154194;-16
2021/12/15 23:29:16;;;;;;;4.22;3.85;;;;;;;;;;7330933;19;153650;-15
2021/12/15 23:31:49;;;;;;;4.32;3.92;;;;;;;;;;7331456;19;161929;-17
2021/12/15 23:34:21;;;;;;;4.28;3.85;;;;;;;;;;7330764;19;162555;-14
2021/12/15 23:36:52;;;;;;;3.80;3.50;;;;;;;;;;7330900;19;153957;-16
2021/12/15 23:39:52;;;;;;;4.35;3.95;;;;;;;;;;7330869;19;153514;-15
2021/12/15 23:54:42;;;;;;;3.88;3.53;;;;;;;;;;7330475;19;153537;-15
